sensor_id;sensor_type;location;lat;lon;timestamp;temperature;humidity
2200;DHT22;1106;48.762;9.168;2022-07-29T00:00:08;21.40;84.20
2200;DHT22;1106;48.762;9.168;2022-07-29T00:02:36;21.40;84.50
2200;DHT22;1106;48.762;9.168;2022-07-29T00:05:03;21.30;84.40
2200;DHT22;1106;48.762;9.168;2022-07-29T00:07:31;21.30;84.40
2200;DHT22;1106;48.762;9.168;2022-07-29T00:09:59;21.30;84.40
2200;DHT22;1106;48.762;9.168;2022-07-29T00:12:26;21.30;84.60
2200;DHT22;1106;48.762;9.168;2022-07-29T00:14:54;21.20;84.90
2200;DHT22;1106;48.762;9.168;2022-07-29T00:17:21;21.20;85.00
2200;DHT22;1106;48.762;9.168;2022-07-29T00:19:48;21.20;85.00
2200;DHT22;1106;48.762;9.168;2022-07-29T00:22:15;21.20;85.00
2200;DHT22;1106;48.762;9.168;2022-07-29T00:24:42;21.10;85.00
2200;DHT22;1106;48.762;9.168;2022-07-29T00:27:10;21.10;85.10
2200;DHT22;1106;48.762;9.168;2022-07-29T00:29:37;21.10;85.30
2200;DHT22;1106;48.762;9.168;2022-07-29T00:32:05;21.10;85.20
2200;DHT22;1106;48.762;9.168;2022-07-29T00:34:32;21.10;85.50
2200;DHT22;1106;48.762;9.168;2022-07-29T00:37:16;21.10;85.70
2200;DHT22;1106;48.762;9.168;2022-07-29T00:39:43;21.10;85.90
2200;DHT22;1106;48.762;9.168;2022-07-29T00:42:12;21.10;86.00
2200;DHT22;1106;48.762;9.168;2022-07-29T00:44:40;21.00;85.70
2200;DHT22;1106;48.762;9.168;2022-07-29T00:47:07;21.00;85.70
2200;DHT22;1106;48.762;9.168;2022-07-29T00:49:34;21.00;85.90
2200;DHT22;1106;48.762;9.168;2022-07-29T00:52:02;21.00;85.90
2200;DHT22;1106;48.762;9.168;2022-07-29T00:54:29;21.00;85.60
2200;DHT22;1106;48.762;9.168;2022-07-29T00:56:58;21.00;85.80
2200;DHT22;1106;48.762;9.168;2022-07-29T00:59:26;21.10;85.40
2200;DHT22;1106;48.762;9.168;2022-07-29T01:01:54;21.10;85.30
2200;DHT22;1106;48.762;9.168;2022-07-29T01:04:22;21.10;85.50
2200;DHT22;1106;48.762;9.168;2022-07-29T01:06:49;21.10;85.40
2200;DHT22;1106;48.762;9.168;2022-07-29T01:09:18;21.00;85.50
2200;DHT22;1106;48.762;9.168;2022-07-29T01:11:46;21.00;85.30
2200;DHT22;1106;48.762;9.168;2022-07-29T01:14:14;21.00;85.50
2200;DHT22;1106;48.762;9.168;2022-07-29T01:16:48;21.00;85.40
2200;DHT22;1106;48.762;9.168;2022-07-29T01:19:33;21.00;85.40
2200;DHT22;1106;48.762;9.168;2022-07-29T01:22:18;21.00;85.60
2200;DHT22;1106;48.762;9.168;2022-07-29T01:25:12;20.90;85.80
2200;DHT22;1106;48.762;9.168;2022-07-29T01:27:53;20.90;85.70
2200;DHT22;1106;48.762;9.168;2022-07-29T01:30:27;20.90;85.70
2200;DHT22;1106;48.762;9.168;2022-07-29T01:33:00;20.90;85.60
2200;DHT22;1106;48.762;9.168;2022-07-29T01:35:34;20.90;85.80
2200;DHT22;1106;48.762;9.168;2022-07-29T01:38:06;20.90;85.80
2200;DHT22;1106;48.762;9.168;2022-07-29T01:40:37;20.90;85.80
2200;DHT22;1106;48.762;9.168;2022-07-29T01:43:10;20.80;86.10
2200;DHT22;1106;48.762;9.168;2022-07-29T01:45:41;20.80;86.20
2200;DHT22;1106;48.762;9.168;2022-07-29T01:48:13;20.80;86.30
2200;DHT22;1106;48.762;9.168;2022-07-29T01:50:46;20.70;86.20
2200;DHT22;1106;48.762;9.168;2022-07-29T01:53:25;20.70;86.10
2200;DHT22;1106;48.762;9.168;2022-07-29T01:55:53;20.70;86.10
2200;DHT22;1106;48.762;9.168;2022-07-29T01:58:24;20.70;85.80
2200;DHT22;1106;48.762;9.168;2022-07-29T02:00:54;20.70;85.70
2200;DHT22;1106;48.762;9.168;2022-07-29T02:03:23;20.70;85.60
2200;DHT22;1106;48.762;9.168;2022-07-29T02:05:51;20.60;85.50
2200;DHT22;1106;48.762;9.168;2022-07-29T02:08:19;20.60;85.50
2200;DHT22;1106;48.762;9.168;2022-07-29T02:10:48;20.60;85.60
2200;DHT22;1106;48.762;9.168;2022-07-29T02:13:18;20.60;85.60
2200;DHT22;1106;48.762;9.168;2022-07-29T02:15:48;20.60;85.70
2200;DHT22;1106;48.762;9.168;2022-07-29T02:18:19;20.60;85.60
2200;DHT22;1106;48.762;9.168;2022-07-29T02:20:48;20.60;85.60
2200;DHT22;1106;48.762;9.168;2022-07-29T02:23:19;20.50;85.70
2200;DHT22;1106;48.762;9.168;2022-07-29T02:25:48;20.50;85.70
2200;DHT22;1106;48.762;9.168;2022-07-29T02:28:16;20.50;85.80
2200;DHT22;1106;48.762;9.168;2022-07-29T02:30:44;20.50;85.70
2200;DHT22;1106;48.762;9.168;2022-07-29T02:33:14;20.50;85.70
2200;DHT22;1106;48.762;9.168;2022-07-29T02:35:45;20.50;85.60
2200;DHT22;1106;48.762;9.168;2022-07-29T02:38:14;20.50;85.80
2200;DHT22;1106;48.762;9.168;2022-07-29T02:41:00;20.50;85.90
2200;DHT22;1106;48.762;9.168;2022-07-29T02:43:29;20.50;85.90
2200;DHT22;1106;48.762;9.168;2022-07-29T02:45:58;20.40;86.20
2200;DHT22;1106;48.762;9.168;2022-07-29T02:48:31;20.40;86.20
2200;DHT22;1106;48.762;9.168;2022-07-29T02:51:07;20.40;86.10
2200;DHT22;1106;48.762;9.168;2022-07-29T02:53:36;20.30;86.30
2200;DHT22;1106;48.762;9.168;2022-07-29T02:56:08;20.30;86.00
2200;DHT22;1106;48.762;9.168;2022-07-29T02:58:40;20.40;85.80
2200;DHT22;1106;48.762;9.168;2022-07-29T03:01:12;20.30;85.70
2200;DHT22;1106;48.762;9.168;2022-07-29T03:03:42;20.40;85.40
2200;DHT22;1106;48.762;9.168;2022-07-29T03:06:13;20.30;85.40
2200;DHT22;1106;48.762;9.168;2022-07-29T03:08:41;20.30;85.40
2200;DHT22;1106;48.762;9.168;2022-07-29T03:11:09;20.30;85.40
2200;DHT22;1106;48.762;9.168;2022-07-29T03:13:37;20.30;85.70
2200;DHT22;1106;48.762;9.168;2022-07-29T03:16:05;20.20;85.70
2200;DHT22;1106;48.762;9.168;2022-07-29T03:18:32;20.20;86.10
2200;DHT22;1106;48.762;9.168;2022-07-29T03:21:00;20.10;86.80
2200;DHT22;1106;48.762;9.168;2022-07-29T03:23:28;20.00;87.00
2200;DHT22;1106;48.762;9.168;2022-07-29T03:25:56;20.00;86.80
2200;DHT22;1106;48.762;9.168;2022-07-29T03:28:23;20.10;86.60
2200;DHT22;1106;48.762;9.168;2022-07-29T03:30:50;20.10;86.30
2200;DHT22;1106;48.762;9.168;2022-07-29T03:33:17;20.20;86.10
2200;DHT22;1106;48.762;9.168;2022-07-29T03:35:44;20.20;86.00
2200;DHT22;1106;48.762;9.168;2022-07-29T03:38:11;20.20;86.10
2200;DHT22;1106;48.762;9.168;2022-07-29T03:40:43;20.20;85.90
2200;DHT22;1106;48.762;9.168;2022-07-29T03:43:12;20.20;85.80
2200;DHT22;1106;48.762;9.168;2022-07-29T03:45:43;20.20;85.80
2200;DHT22;1106;48.762;9.168;2022-07-29T03:48:13;20.20;85.90
2200;DHT22;1106;48.762;9.168;2022-07-29T03:50:42;20.30;85.70
2200;DHT22;1106;48.762;9.168;2022-07-29T03:53:09;20.20;86.30
2200;DHT22;1106;48.762;9.168;2022-07-29T03:55:43;20.00;87.10
2200;DHT22;1106;48.762;9.168;2022-07-29T03:58:13;20.00;87.40
2200;DHT22;1106;48.762;9.168;2022-07-29T04:00:42;20.00;87.10
2200;DHT22;1106;48.762;9.168;2022-07-29T04:03:09;20.00;87.20
2200;DHT22;1106;48.762;9.168;2022-07-29T04:05:37;20.00;87.20
2200;DHT22;1106;48.762;9.168;2022-07-29T04:08:04;20.00;87.10
2200;DHT22;1106;48.762;9.168;2022-07-29T04:10:31;20.10;86.80
2200;DHT22;1106;48.762;9.168;2022-07-29T04:13:00;20.20;86.40
2200;DHT22;1106;48.762;9.168;2022-07-29T04:15:27;20.20;86.10
2200;DHT22;1106;48.762;9.168;2022-07-29T04:17:54;20.20;86.00
2200;DHT22;1106;48.762;9.168;2022-07-29T04:20:21;20.30;85.90
2200;DHT22;1106;48.762;9.168;2022-07-29T04:22:48;20.30;85.50
2200;DHT22;1106;48.762;9.168;2022-07-29T04:25:15;20.40;85.40
2200;DHT22;1106;48.762;9.168;2022-07-29T04:27:42;20.50;85.20
2200;DHT22;1106;48.762;9.168;2022-07-29T04:30:25;20.50;84.70
2200;DHT22;1106;48.762;9.168;2022-07-29T04:32:52;20.50;84.70
2200;DHT22;1106;48.762;9.168;2022-07-29T04:35:19;20.60;84.30
2200;DHT22;1106;48.762;9.168;2022-07-29T04:37:46;20.70;84.00
2200;DHT22;1106;48.762;9.168;2022-07-29T04:40:13;20.70;83.90
2200;DHT22;1106;48.762;9.168;2022-07-29T04:42:40;20.70;84.00
2200;DHT22;1106;48.762;9.168;2022-07-29T04:45:07;20.70;84.00
2200;DHT22;1106;48.762;9.168;2022-07-29T04:47:36;20.80;84.00
2200;DHT22;1106;48.762;9.168;2022-07-29T04:50:03;20.80;84.00
2200;DHT22;1106;48.762;9.168;2022-07-29T04:52:30;20.90;83.40
2200;DHT22;1106;48.762;9.168;2022-07-29T04:54:57;20.80;83.60
2200;DHT22;1106;48.762;9.168;2022-07-29T04:57:25;20.90;83.20
2200;DHT22;1106;48.762;9.168;2022-07-29T04:59:52;20.90;83.10
2200;DHT22;1106;48.762;9.168;2022-07-29T05:02:18;20.90;82.90
2200;DHT22;1106;48.762;9.168;2022-07-29T05:04:47;20.90;82.70
2200;DHT22;1106;48.762;9.168;2022-07-29T05:07:14;21.10;82.50
2200;DHT22;1106;48.762;9.168;2022-07-29T05:09:41;21.10;81.80
2200;DHT22;1106;48.762;9.168;2022-07-29T05:12:08;21.30;81.40
2200;DHT22;1106;48.762;9.168;2022-07-29T05:14:35;21.40;80.70
2200;DHT22;1106;48.762;9.168;2022-07-29T05:17:02;21.50;80.10
2200;DHT22;1106;48.762;9.168;2022-07-29T05:19:29;21.60;79.50
2200;DHT22;1106;48.762;9.168;2022-07-29T05:21:59;21.80;78.90
2200;DHT22;1106;48.762;9.168;2022-07-29T05:24:26;22.00;78.20
2200;DHT22;1106;48.762;9.168;2022-07-29T05:26:53;22.00;77.70
2200;DHT22;1106;48.762;9.168;2022-07-29T05:29:21;22.10;77.00
2200;DHT22;1106;48.762;9.168;2022-07-29T05:31:48;22.20;76.90
2200;DHT22;1106;48.762;9.168;2022-07-29T05:34:17;22.30;76.20
2200;DHT22;1106;48.762;9.168;2022-07-29T05:36:44;22.40;76.20
2200;DHT22;1106;48.762;9.168;2022-07-29T05:39:13;22.60;75.60
2200;DHT22;1106;48.762;9.168;2022-07-29T05:41:40;22.70;75.20
2200;DHT22;1106;48.762;9.168;2022-07-29T05:44:07;22.90;74.70
2200;DHT22;1106;48.762;9.168;2022-07-29T05:46:34;23.00;74.20
2200;DHT22;1106;48.762;9.168;2022-07-29T05:49:01;23.10;73.90
2200;DHT22;1106;48.762;9.168;2022-07-29T05:51:28;23.30;73.70
2200;DHT22;1106;48.762;9.168;2022-07-29T05:53:56;23.40;73.30
2200;DHT22;1106;48.762;9.168;2022-07-29T05:56:25;23.50;73.00
2200;DHT22;1106;48.762;9.168;2022-07-29T05:58:52;23.60;72.60
2200;DHT22;1106;48.762;9.168;2022-07-29T06:01:19;23.70;72.10
2200;DHT22;1106;48.762;9.168;2022-07-29T06:03:46;23.80;71.80
2200;DHT22;1106;48.762;9.168;2022-07-29T06:06:13;24.10;71.30
2200;DHT22;1106;48.762;9.168;2022-07-29T06:08:40;24.30;70.80
2200;DHT22;1106;48.762;9.168;2022-07-29T06:11:07;24.40;70.30
2200;DHT22;1106;48.762;9.168;2022-07-29T06:13:36;24.50;70.00
2200;DHT22;1106;48.762;9.168;2022-07-29T06:16:04;24.60;69.80
2200;DHT22;1106;48.762;9.168;2022-07-29T06:18:31;24.70;69.10
2200;DHT22;1106;48.762;9.168;2022-07-29T06:20:58;24.90;68.90
2200;DHT22;1106;48.762;9.168;2022-07-29T06:23:25;25.00;68.60
2200;DHT22;1106;48.762;9.168;2022-07-29T06:25:52;25.20;68.00
2200;DHT22;1106;48.762;9.168;2022-07-29T06:28:19;25.30;68.30
2200;DHT22;1106;48.762;9.168;2022-07-29T06:30:48;25.30;68.00
2200;DHT22;1106;48.762;9.168;2022-07-29T06:33:18;25.60;67.30
2200;DHT22;1106;48.762;9.168;2022-07-29T06:35:45;25.80;67.00
2200;DHT22;1106;48.762;9.168;2022-07-29T06:38:13;25.80;66.80
2200;DHT22;1106;48.762;9.168;2022-07-29T06:40:43;26.10;66.40
2200;DHT22;1106;48.762;9.168;2022-07-29T06:43:32;26.20;66.10
2200;DHT22;1106;48.762;9.168;2022-07-29T06:46:04;26.40;65.30
2200;DHT22;1106;48.762;9.168;2022-07-29T06:48:33;26.50;64.60
2200;DHT22;1106;48.762;9.168;2022-07-29T06:51:00;26.60;64.60
2200;DHT22;1106;48.762;9.168;2022-07-29T06:53:27;26.60;64.40
2200;DHT22;1106;48.762;9.168;2022-07-29T06:55:54;26.50;64.90
2200;DHT22;1106;48.762;9.168;2022-07-29T06:58:21;26.50;64.80
2200;DHT22;1106;48.762;9.168;2022-07-29T07:00:49;26.50;64.60
2200;DHT22;1106;48.762;9.168;2022-07-29T07:03:18;26.60;64.70
2200;DHT22;1106;48.762;9.168;2022-07-29T07:05:45;26.70;64.50
2200;DHT22;1106;48.762;9.168;2022-07-29T07:08:13;26.80;64.30
2200;DHT22;1106;48.762;9.168;2022-07-29T07:10:41;26.90;64.10
2200;DHT22;1106;48.762;9.168;2022-07-29T07:13:09;27.00;63.80
2200;DHT22;1106;48.762;9.168;2022-07-29T07:15:36;27.10;63.30
2200;DHT22;1106;48.762;9.168;2022-07-29T07:18:04;27.20;62.90
2200;DHT22;1106;48.762;9.168;2022-07-29T07:20:33;27.20;62.80
2200;DHT22;1106;48.762;9.168;2022-07-29T07:23:00;27.10;62.60
2200;DHT22;1106;48.762;9.168;2022-07-29T07:25:27;27.20;62.80
2200;DHT22;1106;48.762;9.168;2022-07-29T07:27:54;27.30;62.40
2200;DHT22;1106;48.762;9.168;2022-07-29T07:30:21;27.30;62.30
2200;DHT22;1106;48.762;9.168;2022-07-29T07:32:48;27.40;62.10
2200;DHT22;1106;48.762;9.168;2022-07-29T07:35:15;27.40;62.20
2200;DHT22;1106;48.762;9.168;2022-07-29T07:37:43;27.50;62.20
2200;DHT22;1106;48.762;9.168;2022-07-29T07:40:11;27.50;62.10
2200;DHT22;1106;48.762;9.168;2022-07-29T07:42:38;27.70;62.10
2200;DHT22;1106;48.762;9.168;2022-07-29T07:45:06;27.70;62.00
2200;DHT22;1106;48.762;9.168;2022-07-29T07:47:34;27.80;62.00
2200;DHT22;1106;48.762;9.168;2022-07-29T07:50:02;28.00;61.70
2200;DHT22;1106;48.762;9.168;2022-07-29T07:52:29;28.00;61.50
2200;DHT22;1106;48.762;9.168;2022-07-29T07:54:58;28.20;61.00
2200;DHT22;1106;48.762;9.168;2022-07-29T07:57:25;28.30;60.60
2200;DHT22;1106;48.762;9.168;2022-07-29T07:59:52;28.30;60.80
2200;DHT22;1106;48.762;9.168;2022-07-29T08:02:19;28.30;60.00
2200;DHT22;1106;48.762;9.168;2022-07-29T08:04:46;28.30;59.80
2200;DHT22;1106;48.762;9.168;2022-07-29T08:07:13;28.20;59.80
2200;DHT22;1106;48.762;9.168;2022-07-29T08:09:40;28.20;59.80
2200;DHT22;1106;48.762;9.168;2022-07-29T08:12:09;28.20;59.40
2200;DHT22;1106;48.762;9.168;2022-07-29T08:14:36;28.30;59.60
2200;DHT22;1106;48.762;9.168;2022-07-29T08:17:02;28.40;59.60
2200;DHT22;1106;48.762;9.168;2022-07-29T08:19:30;28.50;58.90
2200;DHT22;1106;48.762;9.168;2022-07-29T08:21:57;28.50;59.00
2200;DHT22;1106;48.762;9.168;2022-07-29T08:24:24;28.70;58.60
2200;DHT22;1106;48.762;9.168;2022-07-29T08:27:10;28.60;58.70
2200;DHT22;1106;48.762;9.168;2022-07-29T08:29:38;28.60;58.50
2200;DHT22;1106;48.762;9.168;2022-07-29T08:32:05;28.50;58.00
2200;DHT22;1106;48.762;9.168;2022-07-29T08:34:32;28.30;56.10
2200;DHT22;1106;48.762;9.168;2022-07-29T08:36:59;27.70;57.10
2200;DHT22;1106;48.762;9.168;2022-07-29T08:39:26;27.60;57.00
2200;DHT22;1106;48.762;9.168;2022-07-29T08:41:53;27.40;56.90
2200;DHT22;1106;48.762;9.168;2022-07-29T08:44:22;27.30;57.30
2200;DHT22;1106;48.762;9.168;2022-07-29T08:46:49;27.30;56.80
2200;DHT22;1106;48.762;9.168;2022-07-29T08:49:16;27.40;56.80
2200;DHT22;1106;48.762;9.168;2022-07-29T08:51:44;27.40;58.30
2200;DHT22;1106;48.762;9.168;2022-07-29T08:54:11;27.50;59.00
2200;DHT22;1106;48.762;9.168;2022-07-29T08:56:43;27.50;59.40
2200;DHT22;1106;48.762;9.168;2022-07-29T08:59:11;27.40;59.90
2200;DHT22;1106;48.762;9.168;2022-07-29T09:01:40;27.30;60.00
2200;DHT22;1106;48.762;9.168;2022-07-29T09:04:11;27.50;59.40
2200;DHT22;1106;48.762;9.168;2022-07-29T09:06:43;27.50;56.70
2200;DHT22;1106;48.762;9.168;2022-07-29T09:09:11;27.50;55.70
2200;DHT22;1106;48.762;9.168;2022-07-29T09:11:40;27.50;57.60
2200;DHT22;1106;48.762;9.168;2022-07-29T09:14:07;27.60;58.20
2200;DHT22;1106;48.762;9.168;2022-07-29T09:16:53;27.60;58.10
2200;DHT22;1106;48.762;9.168;2022-07-29T09:19:27;27.60;58.00
2200;DHT22;1106;48.762;9.168;2022-07-29T09:21:57;27.80;57.50
2200;DHT22;1106;48.762;9.168;2022-07-29T09:24:24;27.90;56.80
2200;DHT22;1106;48.762;9.168;2022-07-29T09:26:51;28.10;56.40
2200;DHT22;1106;48.762;9.168;2022-07-29T09:29:20;28.30;56.10
2200;DHT22;1106;48.762;9.168;2022-07-29T09:31:51;28.50;55.60
2200;DHT22;1106;48.762;9.168;2022-07-29T09:34:22;28.50;55.20
2200;DHT22;1106;48.762;9.168;2022-07-29T09:36:51;28.70;55.00
2200;DHT22;1106;48.762;9.168;2022-07-29T09:39:27;28.80;53.90
2200;DHT22;1106;48.762;9.168;2022-07-29T09:41:56;28.80;53.60
2200;DHT22;1106;48.762;9.168;2022-07-29T09:44:24;28.70;53.60
2200;DHT22;1106;48.762;9.168;2022-07-29T09:46:57;28.80;53.50
2200;DHT22;1106;48.762;9.168;2022-07-29T09:49:25;28.90;53.60
2200;DHT22;1106;48.762;9.168;2022-07-29T09:52:06;29.10;53.50
2200;DHT22;1106;48.762;9.168;2022-07-29T09:54:34;29.40;52.90
2200;DHT22;1106;48.762;9.168;2022-07-29T09:57:04;29.60;52.60
2200;DHT22;1106;48.762;9.168;2022-07-29T09:59:31;29.80;52.00
2200;DHT22;1106;48.762;9.168;2022-07-29T10:02:00;29.90;50.80
2200;DHT22;1106;48.762;9.168;2022-07-29T10:04:37;29.70;51.40
2200;DHT22;1106;48.762;9.168;2022-07-29T10:07:05;29.60;51.60
2200;DHT22;1106;48.762;9.168;2022-07-29T10:09:33;29.50;51.70
2200;DHT22;1106;48.762;9.168;2022-07-29T10:12:08;29.30;51.40
2200;DHT22;1106;48.762;9.168;2022-07-29T10:14:37;29.10;52.00
2200;DHT22;1106;48.762;9.168;2022-07-29T10:17:07;28.90;52.00
2200;DHT22;1106;48.762;9.168;2022-07-29T10:19:35;28.90;51.70
2200;DHT22;1106;48.762;9.168;2022-07-29T10:22:04;29.00;51.70
2200;DHT22;1106;48.762;9.168;2022-07-29T10:24:31;29.00;51.70
2200;DHT22;1106;48.762;9.168;2022-07-29T10:27:00;28.60;52.50
2200;DHT22;1106;48.762;9.168;2022-07-29T10:29:28;28.50;53.00
2200;DHT22;1106;48.762;9.168;2022-07-29T10:32:15;28.40;53.20
2200;DHT22;1106;48.762;9.168;2022-07-29T10:35:06;28.40;53.30
2200;DHT22;1106;48.762;9.168;2022-07-29T10:37:46;28.20;54.30
2200;DHT22;1106;48.762;9.168;2022-07-29T10:40:26;28.00;54.70
2200;DHT22;1106;48.762;9.168;2022-07-29T10:43:23;27.80;56.50
2200;DHT22;1106;48.762;9.168;2022-07-29T10:45:56;27.30;58.00
2200;DHT22;1106;48.762;9.168;2022-07-29T10:48:25;27.10;60.00
2200;DHT22;1106;48.762;9.168;2022-07-29T10:50:53;26.90;60.10
2200;DHT22;1106;48.762;9.168;2022-07-29T10:53:21;26.90;60.50
2200;DHT22;1106;48.762;9.168;2022-07-29T10:55:50;26.80;62.30
2200;DHT22;1106;48.762;9.168;2022-07-29T10:58:18;26.60;63.90
2200;DHT22;1106;48.762;9.168;2022-07-29T11:00:49;26.50;65.50
2200;DHT22;1106;48.762;9.168;2022-07-29T11:03:46;26.40;68.60
2200;DHT22;1106;48.762;9.168;2022-07-29T11:06:14;26.00;68.70
2200;DHT22;1106;48.762;9.168;2022-07-29T11:08:41;25.60;71.90
2200;DHT22;1106;48.762;9.168;2022-07-29T11:11:35;25.00;72.70
2200;DHT22;1106;48.762;9.168;2022-07-29T11:14:08;24.50;73.30
2200;DHT22;1106;48.762;9.168;2022-07-29T11:17:04;24.20;76.40
2200;DHT22;1106;48.762;9.168;2022-07-29T11:19:33;23.90;78.20
2200;DHT22;1106;48.762;9.168;2022-07-29T11:22:01;23.70;79.40
2200;DHT22;1106;48.762;9.168;2022-07-29T11:24:30;23.70;80.10
2200;DHT22;1106;48.762;9.168;2022-07-29T11:27:12;23.60;80.60
2200;DHT22;1106;48.762;9.168;2022-07-29T11:29:47;23.70;80.40
2200;DHT22;1106;48.762;9.168;2022-07-29T11:32:15;23.80;79.70
2200;DHT22;1106;48.762;9.168;2022-07-29T11:34:47;23.90;79.50
2200;DHT22;1106;48.762;9.168;2022-07-29T11:37:22;24.00;78.20
2200;DHT22;1106;48.762;9.168;2022-07-29T11:40:14;24.20;77.20
2200;DHT22;1106;48.762;9.168;2022-07-29T11:42:46;24.40;78.30
2200;DHT22;1106;48.762;9.168;2022-07-29T11:45:24;24.30;79.20
2200;DHT22;1106;48.762;9.168;2022-07-29T11:47:56;24.30;79.30
2200;DHT22;1106;48.762;9.168;2022-07-29T11:50:32;24.40;79.30
2200;DHT22;1106;48.762;9.168;2022-07-29T11:53:01;24.40;79.60
2200;DHT22;1106;48.762;9.168;2022-07-29T11:55:28;24.60;79.50
2200;DHT22;1106;48.762;9.168;2022-07-29T11:57:59;24.60;79.80
2200;DHT22;1106;48.762;9.168;2022-07-29T12:00:29;24.70;78.90
2200;DHT22;1106;48.762;9.168;2022-07-29T12:02:57;24.70;77.90
2200;DHT22;1106;48.762;9.168;2022-07-29T12:05:37;24.80;76.80
2200;DHT22;1106;48.762;9.168;2022-07-29T12:08:10;24.90;72.80
2200;DHT22;1106;48.762;9.168;2022-07-29T12:10:38;24.90;74.00
2200;DHT22;1106;48.762;9.168;2022-07-29T12:13:05;24.90;74.50
2200;DHT22;1106;48.762;9.168;2022-07-29T12:15:32;25.10;73.60
2200;DHT22;1106;48.762;9.168;2022-07-29T12:18:10;25.20;70.30
2200;DHT22;1106;48.762;9.168;2022-07-29T12:20:38;25.50;69.40
2200;DHT22;1106;48.762;9.168;2022-07-29T12:23:06;25.40;69.80
2200;DHT22;1106;48.762;9.168;2022-07-29T12:25:35;25.50;69.20
2200;DHT22;1106;48.762;9.168;2022-07-29T12:28:04;25.60;68.50
2200;DHT22;1106;48.762;9.168;2022-07-29T12:30:40;25.60;69.40
2200;DHT22;1106;48.762;9.168;2022-07-29T12:33:16;25.50;70.40
2200;DHT22;1106;48.762;9.168;2022-07-29T12:35:47;25.30;71.10
2200;DHT22;1106;48.762;9.168;2022-07-29T12:38:15;25.40;71.70
2200;DHT22;1106;48.762;9.168;2022-07-29T12:40:43;25.20;71.90
2200;DHT22;1106;48.762;9.168;2022-07-29T12:43:13;25.20;71.30
2200;DHT22;1106;48.762;9.168;2022-07-29T12:45:43;25.20;71.20
2200;DHT22;1106;48.762;9.168;2022-07-29T12:48:10;25.10;71.00
2200;DHT22;1106;48.762;9.168;2022-07-29T12:50:54;25.00;72.30
2200;DHT22;1106;48.762;9.168;2022-07-29T12:53:21;24.80;72.00
2200;DHT22;1106;48.762;9.168;2022-07-29T12:55:50;24.80;72.60
2200;DHT22;1106;48.762;9.168;2022-07-29T12:58:32;24.70;73.20
2200;DHT22;1106;48.762;9.168;2022-07-29T13:01:08;24.60;73.40
2200;DHT22;1106;48.762;9.168;2022-07-29T13:03:48;24.60;73.10
2200;DHT22;1106;48.762;9.168;2022-07-29T13:06:40;24.30;74.70
2200;DHT22;1106;48.762;9.168;2022-07-29T13:09:09;24.20;75.00
2200;DHT22;1106;48.762;9.168;2022-07-29T13:11:38;24.00;75.90
2200;DHT22;1106;48.762;9.168;2022-07-29T13:14:07;23.80;76.90
2200;DHT22;1106;48.762;9.168;2022-07-29T13:16:35;23.60;78.10
2200;DHT22;1106;48.762;9.168;2022-07-29T13:19:08;23.50;79.00
2200;DHT22;1106;48.762;9.168;2022-07-29T13:21:36;23.40;80.00
2200;DHT22;1106;48.762;9.168;2022-07-29T13:24:06;23.40;80.30
2200;DHT22;1106;48.762;9.168;2022-07-29T13:26:34;23.50;78.90
2200;DHT22;1106;48.762;9.168;2022-07-29T13:29:02;23.60;78.00
2200;DHT22;1106;48.762;9.168;2022-07-29T13:31:29;23.50;79.80
2200;DHT22;1106;48.762;9.168;2022-07-29T13:33:56;23.40;80.70
2200;DHT22;1106;48.762;9.168;2022-07-29T13:36:23;23.30;81.20
2200;DHT22;1106;48.762;9.168;2022-07-29T13:38:49;23.30;81.40
2200;DHT22;1106;48.762;9.168;2022-07-29T13:41:18;23.30;81.50
2200;DHT22;1106;48.762;9.168;2022-07-29T13:43:45;23.60;80.50
2200;DHT22;1106;48.762;9.168;2022-07-29T13:46:12;23.80;78.60
2200;DHT22;1106;48.762;9.168;2022-07-29T13:48:39;24.00;77.50
2200;DHT22;1106;48.762;9.168;2022-07-29T13:51:06;24.30;75.90
2200;DHT22;1106;48.762;9.168;2022-07-29T13:53:33;24.40;76.30
2200;DHT22;1106;48.762;9.168;2022-07-29T13:56:00;24.50;76.10
2200;DHT22;1106;48.762;9.168;2022-07-29T13:58:28;24.50;75.90
2200;DHT22;1106;48.762;9.168;2022-07-29T14:00:55;24.60;76.80
2200;DHT22;1106;48.762;9.168;2022-07-29T14:03:22;24.90;76.30
2200;DHT22;1106;48.762;9.168;2022-07-29T14:05:50;25.20;76.10
2200;DHT22;1106;48.762;9.168;2022-07-29T14:08:17;25.50;75.90
2200;DHT22;1106;48.762;9.168;2022-07-29T14:10:44;25.70;75.80
2200;DHT22;1106;48.762;9.168;2022-07-29T14:13:11;25.80;75.20
2200;DHT22;1106;48.762;9.168;2022-07-29T14:15:39;25.90;74.00
2200;DHT22;1106;48.762;9.168;2022-07-29T14:18:06;25.80;74.40
2200;DHT22;1106;48.762;9.168;2022-07-29T14:20:33;25.70;74.70
2200;DHT22;1106;48.762;9.168;2022-07-29T14:23:00;25.70;75.20
2200;DHT22;1106;48.762;9.168;2022-07-29T14:25:27;25.90;75.10
2200;DHT22;1106;48.762;9.168;2022-07-29T14:27:54;26.10;74.90
2200;DHT22;1106;48.762;9.168;2022-07-29T14:30:21;26.20;74.40
2200;DHT22;1106;48.762;9.168;2022-07-29T14:32:50;26.40;74.10
2200;DHT22;1106;48.762;9.168;2022-07-29T14:35:17;26.60;74.00
2200;DHT22;1106;48.762;9.168;2022-07-29T14:37:44;26.60;73.80
2200;DHT22;1106;48.762;9.168;2022-07-29T14:40:11;26.70;73.10
2200;DHT22;1106;48.762;9.168;2022-07-29T14:42:39;26.90;73.00
2200;DHT22;1106;48.762;9.168;2022-07-29T14:45:07;27.00;72.30
2200;DHT22;1106;48.762;9.168;2022-07-29T14:47:35;26.90;72.70
2200;DHT22;1106;48.762;9.168;2022-07-29T14:50:05;26.90;73.10
2200;DHT22;1106;48.762;9.168;2022-07-29T14:52:32;27.00;73.50
2200;DHT22;1106;48.762;9.168;2022-07-29T14:54:59;27.00;73.50
2200;DHT22;1106;48.762;9.168;2022-07-29T14:57:26;27.00;73.90
2200;DHT22;1106;48.762;9.168;2022-07-29T14:59:53;27.20;73.40
2200;DHT22;1106;48.762;9.168;2022-07-29T15:02:21;27.10;73.30
2200;DHT22;1106;48.762;9.168;2022-07-29T15:04:48;27.30;71.30
2200;DHT22;1106;48.762;9.168;2022-07-29T15:07:16;27.20;71.40
2200;DHT22;1106;48.762;9.168;2022-07-29T15:09:43;27.20;72.20
2200;DHT22;1106;48.762;9.168;2022-07-29T15:12:11;27.30;72.10
2200;DHT22;1106;48.762;9.168;2022-07-29T15:14:38;27.30;72.00
2200;DHT22;1106;48.762;9.168;2022-07-29T15:17:05;27.40;72.20
2200;DHT22;1106;48.762;9.168;2022-07-29T15:19:32;27.30;71.90
2200;DHT22;1106;48.762;9.168;2022-07-29T15:21:59;27.40;71.60
2200;DHT22;1106;48.762;9.168;2022-07-29T15:24:27;27.20;71.60
2200;DHT22;1106;48.762;9.168;2022-07-29T15:26:54;27.20;72.00
2200;DHT22;1106;48.762;9.168;2022-07-29T15:29:21;27.20;72.00
2200;DHT22;1106;48.762;9.168;2022-07-29T15:31:48;27.20;71.60
2200;DHT22;1106;48.762;9.168;2022-07-29T15:34:15;27.20;71.20
2200;DHT22;1106;48.762;9.168;2022-07-29T15:36:42;27.20;71.10
2200;DHT22;1106;48.762;9.168;2022-07-29T15:39:09;27.20;71.00
2200;DHT22;1106;48.762;9.168;2022-07-29T15:41:38;27.20;71.20
2200;DHT22;1106;48.762;9.168;2022-07-29T15:44:05;27.20;71.20
2200;DHT22;1106;48.762;9.168;2022-07-29T15:46:32;27.00;71.70
2200;DHT22;1106;48.762;9.168;2022-07-29T15:49:16;27.10;71.90
2200;DHT22;1106;48.762;9.168;2022-07-29T15:51:43;27.00;71.60
2200;DHT22;1106;48.762;9.168;2022-07-29T15:54:10;27.10;71.60
2200;DHT22;1106;48.762;9.168;2022-07-29T15:56:39;27.00;71.70
2200;DHT22;1106;48.762;9.168;2022-07-29T15:59:06;27.00;72.00
2200;DHT22;1106;48.762;9.168;2022-07-29T16:01:33;26.90;72.30
2200;DHT22;1106;48.762;9.168;2022-07-29T16:04:00;26.90;72.30
2200;DHT22;1106;48.762;9.168;2022-07-29T16:06:27;26.90;72.40
2200;DHT22;1106;48.762;9.168;2022-07-29T16:08:54;26.90;72.70
2200;DHT22;1106;48.762;9.168;2022-07-29T16:11:21;26.90;73.00
2200;DHT22;1106;48.762;9.168;2022-07-29T16:13:50;26.90;73.50
2200;DHT22;1106;48.762;9.168;2022-07-29T16:16:17;26.90;73.50